Pauline — LG7923 — position and weather

sailwx.info

Track history (hours):
 
Tides and Currents Weather Stations Pressure Air Temp Water Temp Dewpoint Dewpoint Depression Visibility Wind Speed Wind Dir Waves Ship Positions

Pauline

Last reported at 2018-Feb-18 22:40 UTC. Time now 2018-Feb-19 01:41 UTC.
Position N 63°19' E 008°17'.

Length 15 m; draft 3.8 m.

Type: Fishing. MMSI: 257636600.

Date/timePositionNaut miles runAvg speedWind from/ knotsBaromVisibWave heightAir tempDewpointWater temp
2018-Feb-18 22:40N 63°19' E 008°17'1 8.1
2018-Feb-18 22:30N 63°18' E 008°15'4 7.9
2018-Feb-18 22:00N 63°16' E 008°08'4 7.8
2018-Feb-18 21:30N 63°14' E 008°00'4 7.6
2018-Feb-18 21:00N 63°12' E 007°53'3 6.8
2018-Feb-18 20:30N 63°09' E 007°48'3 6.3
2018-Feb-18 20:00N 63°07' E 007°44'0 0.9
2018-Feb-18 19:31N 63°06' E 007°43'3 5.4
2018-Feb-18 19:00N 63°04' E 007°43'0 0.8
2018-Feb-18 18:30N 63°03' E 007°42'0 0.0
2018-Feb-18 18:00N 63°03' E 007°42'0 0.0
2018-Feb-18 17:30N 63°03' E 007°42'0 0.0
2018-Feb-18 17:00N 63°03' E 007°42'0 0.0
2018-Feb-18 16:30N 63°03' E 007°42'0 0.0
2018-Feb-18 16:00N 63°03' E 007°42'0 0.0
2018-Feb-18 15:30N 63°03' E 007°42'0 0.0
2018-Feb-18 15:00N 63°03' E 007°42'0 0.0
2018-Feb-18 14:30N 63°03' E 007°42'0 0.0
2018-Feb-18 14:00N 63°03' E 007°42'0 0.0
2018-Feb-18 13:29N 63°03' E 007°42'0 0.0
2018-Feb-18 13:00N 63°03' E 007°42'0 0.0
2018-Feb-18 12:30N 63°03' E 007°42'0 0.0
2018-Feb-18 12:00N 63°03' E 007°42'0 0.0
2018-Feb-18 11:30N 63°03' E 007°42'0 0.0
2018-Feb-18 11:00N 63°03' E 007°42'0 0.0
2018-Feb-18 10:30N 63°03' E 007°42'0 0.0
2018-Feb-18 10:00N 63°03' E 007°42'0 0.0
2018-Feb-18 09:30N 63°03' E 007°42'0 0.0
2018-Feb-18 09:00N 63°03' E 007°42'0 0.0
2018-Feb-18 08:30N 63°03' E 007°42'0 0.0
2018-Feb-18 08:00N 63°03' E 007°42'0 0.0
2018-Feb-18 07:30N 63°03' E 007°42'0 0.0
2018-Feb-18 07:00N 63°03' E 007°42'0 0.0
2018-Feb-18 06:30N 63°03' E 007°42'0 0.0
2018-Feb-18 06:00N 63°03' E 007°42'0 0.0
2018-Feb-18 05:29N 63°03' E 007°42'0 0.0
2018-Feb-18 05:00N 63°03' E 007°42'0 0.0
2018-Feb-18 04:30N 63°03' E 007°42'0 0.0
2018-Feb-18 04:00N 63°03' E 007°42'0 0.0
2018-Feb-18 03:30N 63°03' E 007°42'0 0.0
2018-Feb-18 03:00N 63°03' E 007°42'0 0.0
2018-Feb-18 02:30N 63°03' E 007°42'0 0.0
2018-Feb-18 02:00N 63°03' E 007°42'0 0.0
2018-Feb-18 01:29N 63°03' E 007°42'0 0.0
2018-Feb-18 01:00N 63°03' E 007°42'0 0.0
2018-Feb-18 00:30N 63°03' E 007°42'0 0.0
2018-Feb-18 00:00N 63°03' E 007°42'0 0.0
2018-Feb-17 23:30N 63°03' E 007°42'0 0.0
2018-Feb-17 23:00N 63°03' E 007°42'0 0.0
2018-Feb-17 22:30N 63°03' E 007°42'0 0.0
2018-Feb-17 22:00N 63°03' E 007°42'0 0.0
2018-Feb-17 21:30N 63°03' E 007°42'0 0.0
2018-Feb-17 21:00N 63°03' E 007°42'0 0.0
2018-Feb-17 20:30N 63°03' E 007°42'0 0.0
2018-Feb-17 20:00N 63°03' E 007°42'0 0.0
2018-Feb-17 19:30N 63°03' E 007°42'0 0.0
2018-Feb-17 19:00N 63°03' E 007°42'0 0.0
2018-Feb-17 18:30N 63°03' E 007°42'0 0.0
2018-Feb-17 18:00N 63°03' E 007°42'0 0.0
2018-Feb-17 17:30N 63°03' E 007°42'0 0.0
2018-Feb-17 17:00N 63°03' E 007°42'0 0.0
2018-Feb-17 16:30N 63°03' E 007°42'0 0.0
2018-Feb-17 16:00N 63°03' E 007°42'0 0.0
2018-Feb-17 15:30N 63°03' E 007°42'0 0.0
2018-Feb-17 15:00N 63°03' E 007°42'0 0.0
2018-Feb-17 14:30N 63°03' E 007°42'0 0.0
2018-Feb-17 14:00N 63°03' E 007°42'0 0.0
2018-Feb-17 13:30N 63°03' E 007°42'0 0.0
2018-Feb-17 13:00N 63°03' E 007°42'0 0.0
2018-Feb-17 12:30N 63°03' E 007°42'0 0.0
2018-Feb-17 12:00N 63°03' E 007°42'0 0.0
2018-Feb-17 11:30N 63°03' E 007°42'0 0.0
2018-Feb-17 11:00N 63°03' E 007°42'0 0.0
2018-Feb-17 10:30N 63°03' E 007°42'0 0.0
2018-Feb-17 10:00N 63°03' E 007°42'0 0.0
2018-Feb-17 09:29N 63°03' E 007°42'0 0.0
2018-Feb-17 09:00N 63°03' E 007°42'0 0.0
2018-Feb-17 08:30N 63°03' E 007°42'0 0.0
2018-Feb-17 08:00N 63°03' E 007°42'0 0.0
2018-Feb-17 07:30N 63°03' E 007°42'0 0.0
2018-Feb-17 07:00N 63°03' E 007°42'0 0.0
2018-Feb-17 06:29N 63°03' E 007°42'0 0.0
2018-Feb-17 06:00N 63°03' E 007°42'0 0.0
2018-Feb-17 05:30N 63°03' E 007°42'0 0.0
2018-Feb-17 05:00N 63°03' E 007°42'0 0.0
2018-Feb-17 04:30N 63°03' E 007°42'0 0.0
2018-Feb-17 04:00N 63°03' E 007°42'0 0.0
2018-Feb-17 03:30N 63°03' E 007°42'0 0.0
2018-Feb-17 03:00N 63°03' E 007°42'0 0.0
2018-Feb-17 02:30N 63°03' E 007°42'0 0.0
2018-Feb-17 02:00N 63°03' E 007°42'0 0.0
2018-Feb-17 01:30N 63°03' E 007°42'0 0.0
2018-Feb-17 01:00N 63°03' E 007°42'0 0.0
2018-Feb-17 00:30N 63°03' E 007°42'0 0.0
2018-Feb-17 00:00N 63°03' E 007°42'0 0.0
2018-Feb-16 23:30N 63°03' E 007°42'0 0.0
2018-Feb-16 23:00N 63°03' E 007°42'0 0.0
2018-Feb-16 22:30N 63°03' E 007°42'0 0.0
2018-Feb-16 22:00N 63°03' E 007°42'0 0.0
2018-Feb-16 21:30N 63°03' E 007°42'0 0.0
2018-Feb-16 21:00N 63°03' E 007°42'0 0.0
2018-Feb-16 20:30N 63°03' E 007°42'0 0.0
2018-Feb-16 20:00N 63°03' E 007°42'0 0.0
2018-Feb-16 19:30N 63°03' E 007°42'0 0.0
2018-Feb-16 19:00N 63°03' E 007°42'0 0.0
2018-Feb-16 18:30N 63°03' E 007°42'0 0.0
2018-Feb-16 18:00N 63°03' E 007°42'0 0.0
2018-Feb-16 17:30N 63°03' E 007°42'0 0.0
2018-Feb-16 17:00N 63°03' E 007°42'0 0.0
2018-Feb-16 16:30N 63°03' E 007°42'0 0.0
2018-Feb-16 16:00N 63°03' E 007°42'0 0.0
2018-Feb-16 15:30N 63°03' E 007°42'0 0.0
2018-Feb-16 15:00N 63°03' E 007°42'0 0.0
2018-Feb-16 14:30N 63°03' E 007°42'0 0.0
2018-Feb-16 14:00N 63°03' E 007°42'0 0.0
2018-Feb-16 13:28N 63°03' E 007°42'0 0.0
2018-Feb-16 13:00N 63°03' E 007°42'0 0.0
2018-Feb-16 12:30N 63°03' E 007°42'0 0.0
2018-Feb-16 12:00N 63°03' E 007°42'0 0.0
2018-Feb-16 11:30N 63°03' E 007°42'0 0.0
2018-Feb-16 11:00N 63°03' E 007°42'0 0.0
2018-Feb-16 10:30N 63°03' E 007°42'0 0.0
2018-Feb-16 10:00N 63°03' E 007°42'0 0.0
2018-Feb-16 09:30N 63°03' E 007°42'0 0.0
2018-Feb-16 09:00N 63°03' E 007°42'0 0.0
2018-Feb-16 08:30N 63°03' E 007°42'0 0.0
2018-Feb-16 08:00N 63°03' E 007°42'0 0.0
2018-Feb-16 07:30N 63°03' E 007°42'0 0.0
2018-Feb-16 07:00N 63°03' E 007°42'0 0.0
2018-Feb-16 06:30N 63°03' E 007°42'0 0.0
2018-Feb-16 05:59N 63°03' E 007°42'0 0.0
2018-Feb-16 05:30N 63°03' E 007°42'0 0.0
2018-Feb-16 05:00N 63°03' E 007°42'0 0.0
2018-Feb-16 04:30N 63°03' E 007°42'0 0.0
2018-Feb-16 04:00N 63°03' E 007°42'0 0.0
2018-Feb-16 03:30N 63°03' E 007°42'0 0.0
2018-Feb-16 03:00N 63°03' E 007°42'0 0.0
2018-Feb-16 02:30N 63°03' E 007°42'0 0.0
2018-Feb-16 02:00N 63°03' E 007°42'0 0.0
2018-Feb-16 01:30N 63°03' E 007°42'0 0.0
2018-Feb-16 01:00N 63°03' E 007°42'0 0.0
2018-Feb-16 00:30N 63°03' E 007°42'0 0.0
2018-Feb-16 00:00N 63°03' E 007°42'0 0.0
2018-Feb-15 23:30N 63°03' E 007°42'0 0.0
2018-Feb-15 23:00N 63°03' E 007°42'0 0.0
2018-Feb-15 22:30N 63°03' E 007°42'0 0.0
2018-Feb-15 22:00N 63°03' E 007°42'0 0.0
2018-Feb-15 21:29N 63°03' E 007°42'0 0.0
2018-Feb-15 21:00N 63°03' E 007°42'0 0.0
2018-Feb-15 20:30N 63°03' E 007°42'0 0.0
2018-Feb-15 20:00N 63°03' E 007°42'0 0.0
2018-Feb-15 19:30N 63°03' E 007°42'0 0.0
2018-Feb-15 19:00N 63°03' E 007°42'0 0.0
2018-Feb-15 18:30N 63°03' E 007°42'0 0.0
2018-Feb-15 18:00N 63°03' E 007°42'0 0.0
2018-Feb-15 17:22N 63°03' E 007°42'0 0.0
2018-Feb-15 17:00N 63°03' E 007°42'0 0.0
2018-Feb-15 16:30N 63°03' E 007°42'0 0.0
2018-Feb-15 16:00N 63°03' E 007°42'0 0.0
2018-Feb-15 15:30N 63°03' E 007°42'0 0.0
2018-Feb-15 15:00N 63°03' E 007°42'0 0.0
2018-Feb-15 14:30N 63°03' E 007°42'0 0.0
2018-Feb-15 14:00N 63°03' E 007°42'0 0.0
2018-Feb-15 13:30N 63°03' E 007°42'0 0.0
2018-Feb-15 13:00N 63°03' E 007°42'0 0.0
2018-Feb-15 12:30N 63°03' E 007°42'0 0.0
2018-Feb-15 12:00N 63°03' E 007°42'0 0.8
2018-Feb-15 11:30N 63°04' E 007°43'0 0.0
2018-Feb-15 11:00N 63°04' E 007°43'0 0.0
2018-Feb-15 10:30N 63°04' E 007°43'0 0.0
2018-Feb-15 10:00N 63°04' E 007°43'0 0.0
2018-Feb-15 09:30N 63°04' E 007°43'0 0.0
2018-Feb-15 09:00N 63°04' E 007°43'0 0.0
2018-Feb-15 08:30N 63°04' E 007°43'0 0.0
2018-Feb-15 08:00N 63°04' E 007°43'0 0.0
2018-Feb-15 07:30N 63°04' E 007°43'0 0.0
2018-Feb-15 07:00N 63°04' E 007°43'0 0.0
2018-Feb-15 06:30N 63°04' E 007°43'0 0.0
2018-Feb-15 06:00N 63°04' E 007°43'0 0.0
2018-Feb-15 05:30N 63°04' E 007°43'0 0.0
2018-Feb-15 05:00N 63°04' E 007°43'0 0.0
2018-Feb-15 04:30N 63°04' E 007°43'0 0.0
2018-Feb-15 03:59N 63°04' E 007°43'0 0.0
2018-Feb-15 03:30N 63°04' E 007°43'0 0.0
2018-Feb-15 03:00N 63°04' E 007°43'0 0.0
2018-Feb-15 02:30N 63°04' E 007°43'0 0.0
2018-Feb-15 02:00N 63°04' E 007°43'0 0.0
2018-Feb-15 01:30N 63°04' E 007°43'0 0.0
2018-Feb-15 01:00N 63°04' E 007°43'0 0.0
2018-Feb-15 00:30N 63°04' E 007°43'0 0.0
2018-Feb-15 00:00N 63°04' E 007°43'0 0.0
2018-Feb-14 23:30N 63°04' E 007°43'0 0.0
2018-Feb-14 22:59N 63°04' E 007°43'0 0.0
2018-Feb-14 22:30N 63°04' E 007°43'0 0.0
2018-Feb-14 22:00N 63°04' E 007°43'0 0.0
2018-Feb-14 21:30N 63°04' E 007°43'0 0.0
2018-Feb-14 21:00N 63°04' E 007°43'0 0.0
2018-Feb-14 20:30N 63°04' E 007°43'0 0.0
2018-Feb-14 20:00N 63°04' E 007°43'0 0.0
2018-Feb-14 19:30N 63°04' E 007°43'0 0.0
2018-Feb-14 19:00N 63°04' E 007°43'0 0.0
2018-Feb-14 18:30N 63°04' E 007°43'0 0.0
2018-Feb-14 18:00N 63°04' E 007°43'0 0.0
2018-Feb-14 17:26N 63°04' E 007°43'0 0.0
2018-Feb-14 17:00N 63°04' E 007°43'0 0.0
2018-Feb-14 16:29N 63°04' E 007°43'0 0.0
2018-Feb-14 16:00N 63°04' E 007°43'0 0.0
2018-Feb-14 15:30N 63°04' E 007°43'0 0.0
2018-Feb-14 15:00N 63°04' E 007°43'0 0.0
2018-Feb-14 14:30N 63°04' E 007°43'0 0.0
2018-Feb-14 14:00N 63°04' E 007°43'0 0.0
2018-Feb-14 13:30N 63°04' E 007°43'0 0.0
2018-Feb-14 13:00N 63°04' E 007°43'0 0.0
2018-Feb-14 12:30N 63°04' E 007°43'0 0.0
2018-Feb-14 11:57N 63°04' E 007°43'0 0.0
2018-Feb-14 11:30N 63°04' E 007°43'0 0.0
2018-Feb-14 11:00N 63°04' E 007°43'0 0.0
2018-Feb-14 10:30N 63°04' E 007°43'0 0.0
2018-Feb-14 10:00N 63°04' E 007°43'0 0.0
2018-Feb-14 09:30N 63°04' E 007°43'0 0.0
2018-Feb-14 09:00N 63°04' E 007°43'0 0.0
2018-Feb-14 08:30N 63°04' E 007°43'0 0.0
2018-Feb-14 08:00N 63°04' E 007°43'0 0.0
2018-Feb-14 07:30N 63°04' E 007°43'0 0.0
2018-Feb-14 07:00N 63°04' E 007°43'0 0.0
2018-Feb-14 06:30N 63°04' E 007°43'0 0.0
2018-Feb-14 06:00N 63°04' E 007°43'0 0.0
2018-Feb-14 05:30N 63°04' E 007°43'0 0.0
2018-Feb-14 05:00N 63°04' E 007°43'0 0.0
2018-Feb-14 04:30N 63°04' E 007°43'0 0.0
2018-Feb-14 04:00N 63°04' E 007°43'0 0.0
2018-Feb-14 03:30N 63°04' E 007°43'0 0.0
2018-Feb-14 03:00N 63°04' E 007°43'0 0.0
2018-Feb-14 02:29N 63°04' E 007°43'0 0.0
2018-Feb-14 02:00N 63°04' E 007°43'0 0.0
2018-Feb-14 01:30N 63°04' E 007°43'0 0.0
2018-Feb-14 01:00N 63°04' E 007°43'0 0.0
2018-Feb-14 00:30N 63°04' E 007°43'0 0.0
2018-Feb-14 00:00N 63°04' E 007°43'0 0.0
2018-Feb-13 23:30N 63°04' E 007°43'0 0.0
2018-Feb-13 23:00N 63°04' E 007°43'0 0.0
2018-Feb-13 22:30N 63°04' E 007°43'0 0.0
2018-Feb-13 22:00N 63°04' E 007°43'0 0.0
2018-Feb-13 21:30N 63°04' E 007°43'0 0.0
2018-Feb-13 21:00N 63°04' E 007°43'0 0.0
2018-Feb-13 20:30N 63°04' E 007°43'0 0.0
2018-Feb-13 20:00N 63°04' E 007°43'0 0.0
2018-Feb-13 19:30N 63°04' E 007°43'0 0.0
2018-Feb-13 18:58N 63°04' E 007°43'0 0.0
2018-Feb-13 18:30N 63°04' E 007°43'0 0.0
2018-Feb-13 18:00N 63°04' E 007°43'0 0.0
2018-Feb-13 17:30N 63°04' E 007°43'0 0.0
2018-Feb-13 17:00N 63°04' E 007°43'0 0.0
2018-Feb-13 16:30N 63°04' E 007°43'0 0.0
2018-Feb-13 16:00N 63°04' E 007°43'0 0.0
2018-Feb-13 15:29N 63°04' E 007°43'0 0.0
2018-Feb-13 15:00N 63°04' E 007°43'0 0.0
2018-Feb-13 14:30N 63°04' E 007°43'0 0.0
2018-Feb-13 13:58N 63°04' E 007°43'0 0.0
2018-Feb-13 13:30N 63°04' E 007°43'0 0.0
2018-Feb-13 13:00N 63°04' E 007°43'0 0.0
2018-Feb-13 12:30N 63°04' E 007°43'0 0.0
2018-Feb-13 12:00N 63°04' E 007°43'0 0.0
2018-Feb-13 11:30N 63°04' E 007°43'0 0.0
2018-Feb-13 11:00N 63°04' E 007°43'0 0.0
2018-Feb-13 10:30N 63°04' E 007°43'0 0.0
2018-Feb-13 10:00N 63°04' E 007°43'0 0.0
2018-Feb-13 09:30N 63°04' E 007°43'0 0.0
2018-Feb-13 09:00N 63°04' E 007°43'0 0.0
2018-Feb-13 08:30N 63°04' E 007°43'0 0.0
2018-Feb-13 08:00N 63°04' E 007°43'0 0.0
2018-Feb-13 07:29N 63°04' E 007°43'0 0.0
2018-Feb-13 07:00N 63°04' E 007°43'0 0.0
2018-Feb-13 06:30N 63°04' E 007°43'0 0.0
2018-Feb-13 05:59N 63°04' E 007°43'0 0.0
2018-Feb-13 05:30N 63°04' E 007°43'0 0.0
2018-Feb-13 05:00N 63°04' E 007°43'0 0.0
2018-Feb-13 04:30N 63°04' E 007°43'0 0.0
2018-Feb-13 04:00N 63°04' E 007°43'0 0.0
2018-Feb-13 03:30N 63°04' E 007°43'0 0.0
2018-Feb-13 03:00N 63°04' E 007°43'0 0.0
2018-Feb-13 02:30N 63°04' E 007°43'0 0.0
2018-Feb-13 02:00N 63°04' E 007°43'0 0.0
2018-Feb-13 01:30N 63°04' E 007°43'0 0.0
2018-Feb-13 00:59N 63°04' E 007°43'0 0.0
2018-Feb-13 00:30N 63°04' E 007°43'0 0.0
2018-Feb-13 00:00N 63°04' E 007°43'0 0.0
2018-Feb-12 23:30N 63°04' E 007°43'0 0.0
2018-Feb-12 23:00N 63°04' E 007°43'0 0.0
2018-Feb-12 22:30N 63°04' E 007°43'0 0.0
2018-Feb-12 21:59N 63°04' E 007°43'0 0.0
2018-Feb-12 21:30N 63°04' E 007°43'0 0.0
2018-Feb-12 21:00N 63°04' E 007°43'0 0.0
2018-Feb-12 20:30N 63°04' E 007°43'0 0.0
2018-Feb-12 20:00N 63°04' E 007°43'0 0.0
2018-Feb-12 19:28N 63°04' E 007°43'0 0.0
2018-Feb-12 18:59N 63°04' E 007°43'0 0.0
2018-Feb-12 18:30N 63°04' E 007°43'0 0.0
2018-Feb-12 18:00N 63°04' E 007°43'0 0.0
2018-Feb-12 17:30N 63°04' E 007°43'0 0.0
2018-Feb-12 17:00N 63°04' E 007°43'0 0.0
2018-Feb-12 16:30N 63°04' E 007°43'0 0.0
2018-Feb-12 16:00N 63°04' E 007°43'0 0.0
2018-Feb-12 15:30N 63°04' E 007°43'0 0.0
2018-Feb-12 15:00N 63°04' E 007°43'0 0.0
2018-Feb-12 14:30N 63°04' E 007°43'0 0.0
2018-Feb-12 14:00N 63°04' E 007°43'0 0.0
2018-Feb-12 13:30N 63°04' E 007°43'0 0.0
2018-Feb-12 13:00N 63°04' E 007°43'0 0.0
2018-Feb-12 12:30N 63°04' E 007°43'0 0.0
2018-Feb-12 12:00N 63°04' E 007°43'0 0.0
2018-Feb-12 11:30N 63°04' E 007°43'0 0.0
2018-Feb-12 11:00N 63°04' E 007°43'0 0.0
2018-Feb-12 10:30N 63°04' E 007°43'0 0.0
2018-Feb-12 10:00N 63°04' E 007°43'0 0.0
2018-Feb-12 09:30N 63°04' E 007°43'0 0.0
2018-Feb-12 09:00N 63°04' E 007°43'0 0.0
2018-Feb-12 08:30N 63°04' E 007°43'0 0.0
2018-Feb-12 08:00N 63°04' E 007°43'0 0.0
2018-Feb-12 07:30N 63°04' E 007°43'0 0.0
2018-Feb-12 07:00N 63°04' E 007°43'0 0.0
2018-Feb-12 06:30N 63°04' E 007°43'0 0.0
2018-Feb-12 06:00N 63°04' E 007°43'0 0.0
2018-Feb-12 05:29N 63°04' E 007°43'0 0.0
2018-Feb-12 05:00N 63°04' E 007°43'0 0.0
2018-Feb-12 04:30N 63°04' E 007°43'0 0.0
2018-Feb-12 04:00N 63°04' E 007°43'0 0.0
2018-Feb-12 03:30N 63°04' E 007°43'0 0.0
2018-Feb-12 03:00N 63°04' E 007°43'0 0.0
2018-Feb-12 02:30N 63°04' E 007°43'0 0.0
2018-Feb-12 02:00N 63°04' E 007°43'0 0.0
2018-Feb-12 01:30N 63°04' E 007°43'0 0.0
2018-Feb-12 01:00N 63°04' E 007°43'0 0.0
2018-Feb-12 00:30N 63°04' E 007°43'0 0.0
2018-Feb-12 00:00N 63°04' E 007°43'0 0.0
2018-Feb-11 23:30N 63°04' E 007°43'0 0.0
2018-Feb-11 23:00N 63°04' E 007°43'0 0.0
2018-Feb-11 22:30N 63°04' E 007°43'0 0.0
2018-Feb-11 22:00N 63°04' E 007°43'0 0.0
2018-Feb-11 21:30N 63°04' E 007°43'0 0.0
2018-Feb-11 21:00N 63°04' E 007°43'0 0.0
2018-Feb-11 20:29N 63°04' E 007°43'0 0.0
2018-Feb-11 20:00N 63°04' E 007°43'0 0.0
2018-Feb-11 19:30N 63°04' E 007°43'0 0.0
2018-Feb-11 19:00N 63°04' E 007°43'0 0.0
2018-Feb-11 18:30N 63°04' E 007°43'0 0.0
2018-Feb-11 18:00N 63°04' E 007°43'0 0.0
2018-Feb-11 17:30N 63°04' E 007°43'0 0.0
2018-Feb-11 17:00N 63°04' E 007°43'0 0.0
2018-Feb-11 16:30N 63°04' E 007°43'0 0.0
2018-Feb-11 16:00N 63°04' E 007°43'0 0.0
2018-Feb-11 15:30N 63°04' E 007°43'0 0.0
2018-Feb-11 15:00N 63°04' E 007°43'0 0.0
2018-Feb-11 14:30N 63°04' E 007°43'0 0.0
2018-Feb-11 14:00N 63°04' E 007°43'0 0.0
2018-Feb-11 13:29N 63°04' E 007°43'0 0.0
2018-Feb-11 13:00N 63°04' E 007°43'0 0.0
2018-Feb-11 12:30N 63°04' E 007°43'0 0.0
2018-Feb-11 12:00N 63°04' E 007°43'0 0.0
2018-Feb-11 11:30N 63°04' E 007°43'0 0.0
2018-Feb-11 11:00N 63°04' E 007°43'0 0.0
2018-Feb-11 10:30N 63°04' E 007°43'0 0.0
2018-Feb-11 10:00N 63°04' E 007°43'0 0.0
2018-Feb-11 09:30N 63°04' E 007°43'0 0.0
2018-Feb-11 09:00N 63°04' E 007°43'0 0.0
2018-Feb-11 08:30N 63°04' E 007°43'0 0.0
2018-Feb-11 08:00N 63°04' E 007°43'0 0.0
2018-Feb-11 07:30N 63°04' E 007°43'0 0.0
2018-Feb-11 07:00N 63°04' E 007°43'0 0.0
2018-Feb-11 06:30N 63°04' E 007°43'0 0.0
2018-Feb-11 06:00N 63°04' E 007°43'0 0.0
2018-Feb-11 05:30N 63°04' E 007°43'0 0.0
2018-Feb-11 04:56N 63°04' E 007°43'0 0.0
2018-Feb-11 04:30N 63°04' E 007°43'0 0.0
2018-Feb-11 04:00N 63°04' E 007°43'0 0.0
2018-Feb-11 03:30N 63°04' E 007°43'0 0.0
2018-Feb-11 02:59N 63°04' E 007°43'0 0.0
2018-Feb-11 02:30N 63°04' E 007°43'0 0.0
2018-Feb-11 02:00N 63°04' E 007°43'0 0.0
2018-Feb-11 01:30N 63°04' E 007°43'0 0.0
2018-Feb-11 00:58N 63°04' E 007°43'0 0.0
2018-Feb-11 00:29N 63°04' E 007°43'0 0.0
2018-Feb-11 00:00N 63°04' E 007°43'0 0.0
2018-Feb-10 23:30N 63°04' E 007°43'0 0.0
2018-Feb-10 23:00N 63°04' E 007°43'0 0.0
2018-Feb-10 22:30N 63°04' E 007°43'0 0.0
2018-Feb-10 22:00N 63°04' E 007°43'0 0.0
2018-Feb-10 21:30N 63°04' E 007°43'0 0.0
2018-Feb-10 21:00N 63°04' E 007°43'0 0.0
2018-Feb-10 20:30N 63°04' E 007°43'0 0.0
2018-Feb-10 20:00N 63°04' E 007°43'0 0.0
2018-Feb-10 19:30N 63°04' E 007°43'0 0.0
2018-Feb-10 19:00N 63°04' E 007°43'0 0.0
2018-Feb-10 18:30N 63°04' E 007°43'0 0.0
2018-Feb-10 18:00N 63°04' E 007°43'0 0.0
2018-Feb-10 17:28N 63°04' E 007°43'0 0.0
2018-Feb-10 16:59N 63°04' E 007°43'0 0.0
2018-Feb-10 16:30N 63°04' E 007°43'0 0.0
2018-Feb-10 16:00N 63°04' E 007°43'0 0.0
2018-Feb-10 15:29N 63°04' E 007°43'0 0.0
2018-Feb-10 15:00N 63°04' E 007°43'0 0.0
2018-Feb-10 14:29N 63°04' E 007°43'0 0.0
2018-Feb-10 14:00N 63°04' E 007°43'0 0.0
2018-Feb-10 13:30N 63°04' E 007°43'0 0.0
2018-Feb-10 13:00N 63°04' E 007°43'0 0.0
2018-Feb-10 12:30N 63°04' E 007°43'0 0.0
2018-Feb-10 12:00N 63°04' E 007°43'0 0.0
2018-Feb-10 11:30N 63°04' E 007°43'0 0.0
2018-Feb-10 11:00N 63°04' E 007°43'0 0.0
2018-Feb-10 10:30N 63°04' E 007°43'0 0.0
2018-Feb-10 10:00N 63°04' E 007°43'0 0.0
2018-Feb-10 09:30N 63°04' E 007°43'0 0.0
2018-Feb-10 09:00N 63°04' E 007°43'0 0.0
2018-Feb-10 08:30N 63°04' E 007°43'0 0.0
2018-Feb-10 08:00N 63°04' E 007°43'0 0.0
2018-Feb-10 07:30N 63°04' E 007°43'0 0.0
2018-Feb-10 07:00N 63°04' E 007°43'0 0.0
2018-Feb-10 06:30N 63°04' E 007°43'0 0.0
2018-Feb-10 06:00N 63°04' E 007°43'0 0.0
2018-Feb-10 05:30N 63°04' E 007°43'0 0.0
2018-Feb-10 05:00N 63°04' E 007°43'0 0.0
2018-Feb-10 04:30N 63°04' E 007°43'0 0.0
2018-Feb-10 04:00N 63°04' E 007°43'0 0.0
2018-Feb-10 03:30N 63°04' E 007°43'0 0.0
2018-Feb-10 03:00N 63°04' E 007°43'0 0.0
2018-Feb-10 02:28N 63°04' E 007°43'0 0.0
2018-Feb-10 02:00N 63°04' E 007°43'0 0.0
2018-Feb-10 01:30N 63°04' E 007°43'0 0.0
2018-Feb-10 01:00N 63°04' E 007°43'0 0.0
2018-Feb-10 00:30N 63°04' E 007°43'0 0.0
2018-Feb-10 00:00N 63°04' E 007°43'0 0.0
2018-Feb-09 23:30N 63°04' E 007°43'0 0.0
2018-Feb-09 23:00N 63°04' E 007°43'0 0.0
2018-Feb-09 22:46N 63°04' E 007°43'0 0.0
2018-Feb-09 22:00N 63°04' E 007°43'0 0.0
2018-Feb-09 21:30N 63°04' E 007°43'0 0.0
2018-Feb-09 13:00N 63°04' E 007°43'0 0.0
2018-Feb-09 12:30N 63°04' E 007°43'0 0.0
2018-Feb-09 12:00N 63°04' E 007°43'0 0.0
2018-Feb-09 11:30N 63°04' E 007°43'0 0.0
2018-Feb-09 11:00N 63°04' E 007°43'0 0.0
2018-Feb-09 10:30N 63°04' E 007°43'0 0.0
2018-Feb-09 10:00N 63°04' E 007°43'0 0.0
2018-Feb-09 09:00N 63°04' E 007°43'0 0.0
2018-Feb-09 08:00N 63°04' E 007°43'0 0.0
2018-Feb-09 07:30N 63°04' E 007°43'0 0.0
2018-Feb-09 06:00N 63°04' E 007°43'0 0.0
2018-Feb-09 05:30N 63°04' E 007°43'0 0.0
2018-Feb-09 05:00N 63°04' E 007°43'0 0.0
2018-Feb-09 04:30N 63°04' E 007°43'0 0.0
2018-Feb-09 04:00N 63°04' E 007°43'0 0.0
2018-Feb-09 03:30N 63°04' E 007°43'0 0.0
2018-Feb-09 03:00N 63°04' E 007°43'0 0.0
2018-Feb-09 02:30N 63°04' E 007°43'0 0.0
2018-Feb-09 02:00N 63°04' E 007°43'0 0.0
2018-Feb-09 01:30N 63°04' E 007°43'0 0.0
2018-Feb-09 01:00N 63°04' E 007°43'0 0.0
2018-Feb-09 00:30N 63°04' E 007°43'0 0.0
2018-Feb-09 00:00N 63°04' E 007°43'0 0.0
2018-Feb-08 23:30N 63°04' E 007°43'0 0.0
2018-Feb-08 23:00N 63°04' E 007°43'  
Track history (hours):
 
Tides and Currents Weather Stations Pressure Air Temp Water Temp Dewpoint Dewpoint Depression Visibility Wind Speed Wind Dir Waves Ship Positions

Pauline

Last reported at 2018-Feb-18 22:40 UTC. Time now 2018-Feb-19 01:41 UTC.
Position N 63°19' E 008°17'.

Length 15 m; draft 3.8 m.

Type: Fishing. MMSI: 257636600.

Date/timePositionNaut miles runAvg speedWind from/ knotsBaromVisibWave heightAir tempDewpointWater temp
2018-Feb-18 22:40N 63°19' E 008°17'1 8.1
2018-Feb-18 22:30N 63°18' E 008°15'4 7.9
2018-Feb-18 22:00N 63°16' E 008°08'4 7.8
2018-Feb-18 21:30N 63°14' E 008°00'4 7.6
2018-Feb-18 21:00N 63°12' E 007°53'3 6.8
2018-Feb-18 20:30N 63°09' E 007°48'3 6.3
2018-Feb-18 20:00N 63°07' E 007°44'0 0.9
2018-Feb-18 19:31N 63°06' E 007°43'3 5.4
2018-Feb-18 19:00N 63°04' E 007°43'0 0.8
2018-Feb-18 18:30N 63°03' E 007°42'0 0.0
2018-Feb-18 18:00N 63°03' E 007°42'0 0.0
2018-Feb-18 17:30N 63°03' E 007°42'0 0.0
2018-Feb-18 17:00N 63°03' E 007°42'0 0.0
2018-Feb-18 16:30N 63°03' E 007°42'0 0.0
2018-Feb-18 16:00N 63°03' E 007°42'0 0.0
2018-Feb-18 15:30N 63°03' E 007°42'0 0.0
2018-Feb-18 15:00N 63°03' E 007°42'0 0.0
2018-Feb-18 14:30N 63°03' E 007°42'0 0.0
2018-Feb-18 14:00N 63°03' E 007°42'0 0.0
2018-Feb-18 13:29N 63°03' E 007°42'0 0.0
2018-Feb-18 13:00N 63°03' E 007°42'0 0.0
2018-Feb-18 12:30N 63°03' E 007°42'0 0.0
2018-Feb-18 12:00N 63°03' E 007°42'0 0.0
2018-Feb-18 11:30N 63°03' E 007°42'0 0.0
2018-Feb-18 11:00N 63°03' E 007°42'0 0.0
2018-Feb-18 10:30N 63°03' E 007°42'0 0.0
2018-Feb-18 10:00N 63°03' E 007°42'0 0.0
2018-Feb-18 09:30N 63°03' E 007°42'0 0.0
2018-Feb-18 09:00N 63°03' E 007°42'0 0.0
2018-Feb-18 08:30N 63°03' E 007°42'0 0.0
2018-Feb-18 08:00N 63°03' E 007°42'0 0.0
2018-Feb-18 07:30N 63°03' E 007°42'0 0.0
2018-Feb-18 07:00N 63°03' E 007°42'0 0.0
2018-Feb-18 06:30N 63°03' E 007°42'0 0.0
2018-Feb-18 06:00N 63°03' E 007°42'0 0.0
2018-Feb-18 05:29N 63°03' E 007°42'0 0.0
2018-Feb-18 05:00N 63°03' E 007°42'0 0.0
2018-Feb-18 04:30N 63°03' E 007°42'0 0.0
2018-Feb-18 04:00N 63°03' E 007°42'0 0.0
2018-Feb-18 03:30N 63°03' E 007°42'0 0.0
2018-Feb-18 03:00N 63°03' E 007°42'0 0.0
2018-Feb-18 02:30N 63°03' E 007°42'0 0.0
2018-Feb-18 02:00N 63°03' E 007°42'0 0.0
2018-Feb-18 01:29N 63°03' E 007°42'0 0.0
2018-Feb-18 01:00N 63°03' E 007°42'0 0.0
2018-Feb-18 00:30N 63°03' E 007°42'0 0.0
2018-Feb-18 00:00N 63°03' E 007°42'0 0.0
2018-Feb-17 23:30N 63°03' E 007°42'0 0.0
2018-Feb-17 23:00N 63°03' E 007°42'0 0.0
2018-Feb-17 22:30N 63°03' E 007°42'0 0.0
2018-Feb-17 22:00N 63°03' E 007°42'0 0.0
2018-Feb-17 21:30N 63°03' E 007°42'0 0.0
2018-Feb-17 21:00N 63°03' E 007°42'0 0.0
2018-Feb-17 20:30N 63°03' E 007°42'0 0.0
2018-Feb-17 20:00N 63°03' E 007°42'0 0.0
2018-Feb-17 19:30N 63°03' E 007°42'0 0.0
2018-Feb-17 19:00N 63°03' E 007°42'0 0.0
2018-Feb-17 18:30N 63°03' E 007°42'0 0.0
2018-Feb-17 18:00N 63°03' E 007°42'0 0.0
2018-Feb-17 17:30N 63°03' E 007°42'0 0.0
2018-Feb-17 17:00N 63°03' E 007°42'0 0.0
2018-Feb-17 16:30N 63°03' E 007°42'0 0.0
2018-Feb-17 16:00N 63°03' E 007°42'0 0.0
2018-Feb-17 15:30N 63°03' E 007°42'0 0.0
2018-Feb-17 15:00N 63°03' E 007°42'0 0.0
2018-Feb-17 14:30N 63°03' E 007°42'0 0.0
2018-Feb-17 14:00N 63°03' E 007°42'0 0.0
2018-Feb-17 13:30N 63°03' E 007°42'0 0.0
2018-Feb-17 13:00N 63°03' E 007°42'0 0.0
2018-Feb-17 12:30N 63°03' E 007°42'0 0.0
2018-Feb-17 12:00N 63°03' E 007°42'0 0.0
2018-Feb-17 11:30N 63°03' E 007°42'0 0.0
2018-Feb-17 11:00N 63°03' E 007°42'0 0.0
2018-Feb-17 10:30N 63°03' E 007°42'0 0.0
2018-Feb-17 10:00N 63°03' E 007°42'0 0.0
2018-Feb-17 09:29N 63°03' E 007°42'0 0.0
2018-Feb-17 09:00N 63°03' E 007°42'0 0.0
2018-Feb-17 08:30N 63°03' E 007°42'0 0.0
2018-Feb-17 08:00N 63°03' E 007°42'0 0.0
2018-Feb-17 07:30N 63°03' E 007°42'0 0.0
2018-Feb-17 07:00N 63°03' E 007°42'0 0.0
2018-Feb-17 06:29N 63°03' E 007°42'0 0.0
2018-Feb-17 06:00N 63°03' E 007°42'0 0.0
2018-Feb-17 05:30N 63°03' E 007°42'0 0.0
2018-Feb-17 05:00N 63°03' E 007°42'0 0.0
2018-Feb-17 04:30N 63°03' E 007°42'0 0.0
2018-Feb-17 04:00N 63°03' E 007°42'0 0.0
2018-Feb-17 03:30N 63°03' E 007°42'0 0.0
2018-Feb-17 03:00N 63°03' E 007°42'0 0.0
2018-Feb-17 02:30N 63°03' E 007°42'0 0.0
2018-Feb-17 02:00N 63°03' E 007°42'0 0.0
2018-Feb-17 01:30N 63°03' E 007°42'0 0.0
2018-Feb-17 01:00N 63°03' E 007°42'0 0.0
2018-Feb-17 00:30N 63°03' E 007°42'0 0.0
2018-Feb-17 00:00N 63°03' E 007°42'0 0.0
2018-Feb-16 23:30N 63°03' E 007°42'0 0.0
2018-Feb-16 23:00N 63°03' E 007°42'0 0.0
2018-Feb-16 22:30N 63°03' E 007°42'0 0.0
2018-Feb-16 22:00N 63°03' E 007°42'0 0.0
2018-Feb-16 21:30N 63°03' E 007°42'0 0.0
2018-Feb-16 21:00N 63°03' E 007°42'0 0.0
2018-Feb-16 20:30N 63°03' E 007°42'0 0.0
2018-Feb-16 20:00N 63°03' E 007°42'0 0.0
2018-Feb-16 19:30N 63°03' E 007°42'0 0.0
2018-Feb-16 19:00N 63°03' E 007°42'0 0.0
2018-Feb-16 18:30N 63°03' E 007°42'0 0.0
2018-Feb-16 18:00N 63°03' E 007°42'0 0.0
2018-Feb-16 17:30N 63°03' E 007°42'0 0.0
2018-Feb-16 17:00N 63°03' E 007°42'0 0.0
2018-Feb-16 16:30N 63°03' E 007°42'0 0.0
2018-Feb-16 16:00N 63°03' E 007°42'0 0.0
2018-Feb-16 15:30N 63°03' E 007°42'0 0.0
2018-Feb-16 15:00N 63°03' E 007°42'0 0.0
2018-Feb-16 14:30N 63°03' E 007°42'0 0.0
2018-Feb-16 14:00N 63°03' E 007°42'0 0.0
2018-Feb-16 13:28N 63°03' E 007°42'0 0.0
2018-Feb-16 13:00N 63°03' E 007°42'0 0.0
2018-Feb-16 12:30N 63°03' E 007°42'0 0.0
2018-Feb-16 12:00N 63°03' E 007°42'0 0.0
2018-Feb-16 11:30N 63°03' E 007°42'0 0.0
2018-Feb-16 11:00N 63°03' E 007°42'0 0.0
2018-Feb-16 10:30N 63°03' E 007°42'0 0.0
2018-Feb-16 10:00N 63°03' E 007°42'0 0.0
2018-Feb-16 09:30N 63°03' E 007°42'0 0.0
2018-Feb-16 09:00N 63°03' E 007°42'0 0.0
2018-Feb-16 08:30N 63°03' E 007°42'0 0.0
2018-Feb-16 08:00N 63°03' E 007°42'0 0.0
2018-Feb-16 07:30N 63°03' E 007°42'0 0.0
2018-Feb-16 07:00N 63°03' E 007°42'0 0.0
2018-Feb-16 06:30N 63°03' E 007°42'0 0.0
2018-Feb-16 05:59N 63°03' E 007°42'0 0.0
2018-Feb-16 05:30N 63°03' E 007°42'0 0.0
2018-Feb-16 05:00N 63°03' E 007°42'0 0.0
2018-Feb-16 04:30N 63°03' E 007°42'0 0.0
2018-Feb-16 04:00N 63°03' E 007°42'0 0.0
2018-Feb-16 03:30N 63°03' E 007°42'0 0.0
2018-Feb-16 03:00N 63°03' E 007°42'0 0.0
2018-Feb-16 02:30N 63°03' E 007°42'0 0.0
2018-Feb-16 02:00N 63°03' E 007°42'0 0.0
2018-Feb-16 01:30N 63°03' E 007°42'0 0.0
2018-Feb-16 01:00N 63°03' E 007°42'0 0.0
2018-Feb-16 00:30N 63°03' E 007°42'0 0.0
2018-Feb-16 00:00N 63°03' E 007°42'0 0.0
2018-Feb-15 23:30N 63°03' E 007°42'0 0.0
2018-Feb-15 23:00N 63°03' E 007°42'0 0.0
2018-Feb-15 22:30N 63°03' E 007°42'0 0.0
2018-Feb-15 22:00N 63°03' E 007°42'0 0.0
2018-Feb-15 21:29N 63°03' E 007°42'0 0.0
2018-Feb-15 21:00N 63°03' E 007°42'0 0.0
2018-Feb-15 20:30N 63°03' E 007°42'0 0.0
2018-Feb-15 20:00N 63°03' E 007°42'0 0.0
2018-Feb-15 19:30N 63°03' E 007°42'0 0.0
2018-Feb-15 19:00N 63°03' E 007°42'0 0.0
2018-Feb-15 18:30N 63°03' E 007°42'0 0.0
2018-Feb-15 18:00N 63°03' E 007°42'0 0.0
2018-Feb-15 17:22N 63°03' E 007°42'0 0.0
2018-Feb-15 17:00N 63°03' E 007°42'0 0.0
2018-Feb-15 16:30N 63°03' E 007°42'0 0.0
2018-Feb-15 16:00N 63°03' E 007°42'0 0.0
2018-Feb-15 15:30N 63°03' E 007°42'0 0.0
2018-Feb-15 15:00N 63°03' E 007°42'0 0.0
2018-Feb-15 14:30N 63°03' E 007°42'0 0.0
2018-Feb-15 14:00N 63°03' E 007°42'0 0.0
2018-Feb-15 13:30N 63°03' E 007°42'0 0.0
2018-Feb-15 13:00N 63°03' E 007°42'0 0.0
2018-Feb-15 12:30N 63°03' E 007°42'0 0.0
2018-Feb-15 12:00N 63°03' E 007°42'0 0.8
2018-Feb-15 11:30N 63°04' E 007°43'0 0.0
2018-Feb-15 11:00N 63°04' E 007°43'0 0.0
2018-Feb-15 10:30N 63°04' E 007°43'0 0.0
2018-Feb-15 10:00N 63°04' E 007°43'0 0.0
2018-Feb-15 09:30N 63°04' E 007°43'0 0.0
2018-Feb-15 09:00N 63°04' E 007°43'0 0.0
2018-Feb-15 08:30N 63°04' E 007°43'0 0.0
2018-Feb-15 08:00N 63°04' E 007°43'0 0.0
2018-Feb-15 07:30N 63°04' E 007°43'0 0.0
2018-Feb-15 07:00N 63°04' E 007°43'0 0.0
2018-Feb-15 06:30N 63°04' E 007°43'0 0.0
2018-Feb-15 06:00N 63°04' E 007°43'0 0.0
2018-Feb-15 05:30N 63°04' E 007°43'0 0.0
2018-Feb-15 05:00N 63°04' E 007°43'0 0.0
2018-Feb-15 04:30N 63°04' E 007°43'0 0.0
2018-Feb-15 03:59N 63°04' E 007°43'0 0.0
2018-Feb-15 03:30N 63°04' E 007°43'0 0.0
2018-Feb-15 03:00N 63°04' E 007°43'0 0.0
2018-Feb-15 02:30N 63°04' E 007°43'0 0.0
2018-Feb-15 02:00N 63°04' E 007°43'0 0.0
2018-Feb-15 01:30N 63°04' E 007°43'0 0.0
2018-Feb-15 01:00N 63°04' E 007°43'0 0.0
2018-Feb-15 00:30N 63°04' E 007°43'0 0.0
2018-Feb-15 00:00N 63°04' E 007°43'0 0.0
2018-Feb-14 23:30N 63°04' E 007°43'0 0.0
2018-Feb-14 22:59N 63°04' E 007°43'0 0.0
2018-Feb-14 22:30N 63°04' E 007°43'0 0.0
2018-Feb-14 22:00N 63°04' E 007°43'0 0.0
2018-Feb-14 21:30N 63°04' E 007°43'0 0.0
2018-Feb-14 21:00N 63°04' E 007°43'0 0.0
2018-Feb-14 20:30N 63°04' E 007°43'0 0.0
2018-Feb-14 20:00N 63°04' E 007°43'0 0.0
2018-Feb-14 19:30N 63°04' E 007°43'0 0.0
2018-Feb-14 19:00N 63°04' E 007°43'0 0.0
2018-Feb-14 18:30N 63°04' E 007°43'0 0.0
2018-Feb-14 18:00N 63°04' E 007°43'0 0.0
2018-Feb-14 17:26N 63°04' E 007°43'0 0.0
2018-Feb-14 17:00N 63°04' E 007°43'0 0.0
2018-Feb-14 16:29N 63°04' E 007°43'0 0.0
2018-Feb-14 16:00N 63°04' E 007°43'0 0.0
2018-Feb-14 15:30N 63°04' E 007°43'0 0.0
2018-Feb-14 15:00N 63°04' E 007°43'0 0.0
2018-Feb-14 14:30N 63°04' E 007°43'0 0.0
2018-Feb-14 14:00N 63°04' E 007°43'0 0.0
2018-Feb-14 13:30N 63°04' E 007°43'0 0.0
2018-Feb-14 13:00N 63°04' E 007°43'0 0.0
2018-Feb-14 12:30N 63°04' E 007°43'0 0.0
2018-Feb-14 11:57N 63°04' E 007°43'0 0.0
2018-Feb-14 11:30N 63°04' E 007°43'0 0.0
2018-Feb-14 11:00N 63°04' E 007°43'0 0.0
2018-Feb-14 10:30N 63°04' E 007°43'0 0.0
2018-Feb-14 10:00N 63°04' E 007°43'0 0.0
2018-Feb-14 09:30N 63°04' E 007°43'0 0.0
2018-Feb-14 09:00N 63°04' E 007°43'0 0.0
2018-Feb-14 08:30N 63°04' E 007°43'0 0.0
2018-Feb-14 08:00N 63°04' E 007°43'0 0.0
2018-Feb-14 07:30N 63°04' E 007°43'0 0.0
2018-Feb-14 07:00N 63°04' E 007°43'0 0.0
2018-Feb-14 06:30N 63°04' E 007°43'0 0.0
2018-Feb-14 06:00N 63°04' E 007°43'0 0.0
2018-Feb-14 05:30N 63°04' E 007°43'0 0.0
2018-Feb-14 05:00N 63°04' E 007°43'0 0.0
2018-Feb-14 04:30N 63°04' E 007°43'0 0.0
2018-Feb-14 04:00N 63°04' E 007°43'0 0.0
2018-Feb-14 03:30N 63°04' E 007°43'0 0.0
2018-Feb-14 03:00N 63°04' E 007°43'0 0.0
2018-Feb-14 02:29N 63°04' E 007°43'0 0.0
2018-Feb-14 02:00N 63°04' E 007°43'0 0.0
2018-Feb-14 01:30N 63°04' E 007°43'0 0.0
2018-Feb-14 01:00N 63°04' E 007°43'0 0.0
2018-Feb-14 00:30N 63°04' E 007°43'0 0.0
2018-Feb-14 00:00N 63°04' E 007°43'0 0.0
2018-Feb-13 23:30N 63°04' E 007°43'0 0.0
2018-Feb-13 23:00N 63°04' E 007°43'0 0.0
2018-Feb-13 22:30N 63°04' E 007°43'0 0.0
2018-Feb-13 22:00N 63°04' E 007°43'0 0.0
2018-Feb-13 21:30N 63°04' E 007°43'0 0.0
2018-Feb-13 21:00N 63°04' E 007°43'0 0.0
2018-Feb-13 20:30N 63°04' E 007°43'0 0.0
2018-Feb-13 20:00N 63°04' E 007°43'0 0.0
2018-Feb-13 19:30N 63°04' E 007°43'0 0.0
2018-Feb-13 18:58N 63°04' E 007°43'0 0.0
2018-Feb-13 18:30N 63°04' E 007°43'0 0.0
2018-Feb-13 18:00N 63°04' E 007°43'0 0.0
2018-Feb-13 17:30N 63°04' E 007°43'0 0.0
2018-Feb-13 17:00N 63°04' E 007°43'0 0.0
2018-Feb-13 16:30N 63°04' E 007°43'0 0.0
2018-Feb-13 16:00N 63°04' E 007°43'0 0.0
2018-Feb-13 15:29N 63°04' E 007°43'0 0.0
2018-Feb-13 15:00N 63°04' E 007°43'0 0.0
2018-Feb-13 14:30N 63°04' E 007°43'0 0.0
2018-Feb-13 13:58N 63°04' E 007°43'0 0.0
2018-Feb-13 13:30N 63°04' E 007°43'0 0.0
2018-Feb-13 13:00N 63°04' E 007°43'0 0.0
2018-Feb-13 12:30N 63°04' E 007°43'0 0.0
2018-Feb-13 12:00N 63°04' E 007°43'0 0.0
2018-Feb-13 11:30N 63°04' E 007°43'0 0.0
2018-Feb-13 11:00N 63°04' E 007°43'0 0.0
2018-Feb-13 10:30N 63°04' E 007°43'0 0.0
2018-Feb-13 10:00N 63°04' E 007°43'0 0.0
2018-Feb-13 09:30N 63°04' E 007°43'0 0.0
2018-Feb-13 09:00N 63°04' E 007°43'0 0.0
2018-Feb-13 08:30N 63°04' E 007°43'0 0.0
2018-Feb-13 08:00N 63°04' E 007°43'0 0.0
2018-Feb-13 07:29N 63°04' E 007°43'0 0.0
2018-Feb-13 07:00N 63°04' E 007°43'0 0.0
2018-Feb-13 06:30N 63°04' E 007°43'0 0.0
2018-Feb-13 05:59N 63°04' E 007°43'0 0.0
2018-Feb-13 05:30N 63°04' E 007°43'0 0.0
2018-Feb-13 05:00N 63°04' E 007°43'0 0.0
2018-Feb-13 04:30N 63°04' E 007°43'0 0.0
2018-Feb-13 04:00N 63°04' E 007°43'0 0.0
2018-Feb-13 03:30N 63°04' E 007°43'0 0.0
2018-Feb-13 03:00N 63°04' E 007°43'0 0.0
2018-Feb-13 02:30N 63°04' E 007°43'0 0.0
2018-Feb-13 02:00N 63°04' E 007°43'0 0.0
2018-Feb-13 01:30N 63°04' E 007°43'0 0.0
2018-Feb-13 00:59N 63°04' E 007°43'0 0.0
2018-Feb-13 00:30N 63°04' E 007°43'0 0.0
2018-Feb-13 00:00N 63°04' E 007°43'0 0.0
2018-Feb-12 23:30N 63°04' E 007°43'0 0.0
2018-Feb-12 23:00N 63°04' E 007°43'0 0.0
2018-Feb-12 22:30N 63°04' E 007°43'0 0.0
2018-Feb-12 21:59N 63°04' E 007°43'0 0.0
2018-Feb-12 21:30N 63°04' E 007°43'0 0.0
2018-Feb-12 21:00N 63°04' E 007°43'0 0.0
2018-Feb-12 20:30N 63°04' E 007°43'0 0.0
2018-Feb-12 20:00N 63°04' E 007°43'0 0.0
2018-Feb-12 19:28N 63°04' E 007°43'0 0.0
2018-Feb-12 18:59N 63°04' E 007°43'0 0.0
2018-Feb-12 18:30N 63°04' E 007°43'0 0.0
2018-Feb-12 18:00N 63°04' E 007°43'0 0.0
2018-Feb-12 17:30N 63°04' E 007°43'0 0.0
2018-Feb-12 17:00N 63°04' E 007°43'0 0.0
2018-Feb-12 16:30N 63°04' E 007°43'0 0.0
2018-Feb-12 16:00N 63°04' E 007°43'0 0.0
2018-Feb-12 15:30N 63°04' E 007°43'0 0.0
2018-Feb-12 15:00N 63°04' E 007°43'0 0.0
2018-Feb-12 14:30N 63°04' E 007°43'0 0.0
2018-Feb-12 14:00N 63°04' E 007°43'0 0.0
2018-Feb-12 13:30N 63°04' E 007°43'0 0.0
2018-Feb-12 13:00N 63°04' E 007°43'0 0.0
2018-Feb-12 12:30N 63°04' E 007°43'0 0.0
2018-Feb-12 12:00N 63°04' E 007°43'0 0.0
2018-Feb-12 11:30N 63°04' E 007°43'0 0.0
2018-Feb-12 11:00N 63°04' E 007°43'0 0.0
2018-Feb-12 10:30N 63°04' E 007°43'0 0.0
2018-Feb-12 10:00N 63°04' E 007°43'0 0.0
2018-Feb-12 09:30N 63°04' E 007°43'0 0.0
2018-Feb-12 09:00N 63°04' E 007°43'0 0.0
2018-Feb-12 08:30N 63°04' E 007°43'0 0.0
2018-Feb-12 08:00N 63°04' E 007°43'0 0.0
2018-Feb-12 07:30N 63°04' E 007°43'0 0.0
2018-Feb-12 07:00N 63°04' E 007°43'0 0.0
2018-Feb-12 06:30N 63°04' E 007°43'0 0.0
2018-Feb-12 06:00N 63°04' E 007°43'0 0.0
2018-Feb-12 05:29N 63°04' E 007°43'0 0.0
2018-Feb-12 05:00N 63°04' E 007°43'0 0.0
2018-Feb-12 04:30N 63°04' E 007°43'0 0.0
2018-Feb-12 04:00N 63°04' E 007°43'0 0.0
2018-Feb-12 03:30N 63°04' E 007°43'0 0.0
2018-Feb-12 03:00N 63°04' E 007°43'0 0.0
2018-Feb-12 02:30N 63°04' E 007°43'0 0.0
2018-Feb-12 02:00N 63°04' E 007°43'0 0.0
2018-Feb-12 01:30N 63°04' E 007°43'0 0.0
2018-Feb-12 01:00N 63°04' E 007°43'0 0.0
2018-Feb-12 00:30N 63°04' E 007°43'0 0.0
2018-Feb-12 00:00N 63°04' E 007°43'0 0.0
2018-Feb-11 23:30N 63°04' E 007°43'0 0.0
2018-Feb-11 23:00N 63°04' E 007°43'0 0.0
2018-Feb-11 22:30N 63°04' E 007°43'0 0.0
2018-Feb-11 22:00N 63°04' E 007°43'0 0.0
2018-Feb-11 21:30N 63°04' E 007°43'0 0.0
2018-Feb-11 21:00N 63°04' E 007°43'0 0.0
2018-Feb-11 20:29N 63°04' E 007°43'0 0.0
2018-Feb-11 20:00N 63°04' E 007°43'0 0.0
2018-Feb-11 19:30N 63°04' E 007°43'0 0.0
2018-Feb-11 19:00N 63°04' E 007°43'0 0.0
2018-Feb-11 18:30N 63°04' E 007°43'0 0.0
2018-Feb-11 18:00N 63°04' E 007°43'0 0.0
2018-Feb-11 17:30N 63°04' E 007°43'0 0.0
2018-Feb-11 17:00N 63°04' E 007°43'0 0.0
2018-Feb-11 16:30N 63°04' E 007°43'0 0.0
2018-Feb-11 16:00N 63°04' E 007°43'0 0.0
2018-Feb-11 15:30N 63°04' E 007°43'0 0.0
2018-Feb-11 15:00N 63°04' E 007°43'0 0.0
2018-Feb-11 14:30N 63°04' E 007°43'0 0.0
2018-Feb-11 14:00N 63°04' E 007°43'0 0.0
2018-Feb-11 13:29N 63°04' E 007°43'0 0.0
2018-Feb-11 13:00N 63°04' E 007°43'0 0.0
2018-Feb-11 12:30N 63°04' E 007°43'0 0.0
2018-Feb-11 12:00N 63°04' E 007°43'0 0.0
2018-Feb-11 11:30N 63°04' E 007°43'0 0.0
2018-Feb-11 11:00N 63°04' E 007°43'0 0.0
2018-Feb-11 10:30N 63°04' E 007°43'0 0.0
2018-Feb-11 10:00N 63°04' E 007°43'0 0.0
2018-Feb-11 09:30N 63°04' E 007°43'0 0.0
2018-Feb-11 09:00N 63°04' E 007°43'0 0.0
2018-Feb-11 08:30N 63°04' E 007°43'0 0.0
2018-Feb-11 08:00N 63°04' E 007°43'0 0.0
2018-Feb-11 07:30N 63°04' E 007°43'0 0.0
2018-Feb-11 07:00N 63°04' E 007°43'0 0.0
2018-Feb-11 06:30N 63°04' E 007°43'0 0.0
2018-Feb-11 06:00N 63°04' E 007°43'0 0.0
2018-Feb-11 05:30N 63°04' E 007°43'0 0.0
2018-Feb-11 04:56N 63°04' E 007°43'0 0.0
2018-Feb-11 04:30N 63°04' E 007°43'0 0.0
2018-Feb-11 04:00N 63°04' E 007°43'0 0.0
2018-Feb-11 03:30N 63°04' E 007°43'0 0.0
2018-Feb-11 02:59N 63°04' E 007°43'0 0.0
2018-Feb-11 02:30N 63°04' E 007°43'0 0.0
2018-Feb-11 02:00N 63°04' E 007°43'0 0.0
2018-Feb-11 01:30N 63°04' E 007°43'0 0.0
2018-Feb-11 00:58N 63°04' E 007°43'0 0.0
2018-Feb-11 00:29N 63°04' E 007°43'0 0.0
2018-Feb-11 00:00N 63°04' E 007°43'0 0.0
2018-Feb-10 23:30N 63°04' E 007°43'0 0.0
2018-Feb-10 23:00N 63°04' E 007°43'0 0.0
2018-Feb-10 22:30N 63°04' E 007°43'0 0.0
2018-Feb-10 22:00N 63°04' E 007°43'0 0.0
2018-Feb-10 21:30N 63°04' E 007°43'0 0.0
2018-Feb-10 21:00N 63°04' E 007°43'0 0.0
2018-Feb-10 20:30N 63°04' E 007°43'0 0.0
2018-Feb-10 20:00N 63°04' E 007°43'0 0.0
2018-Feb-10 19:30N 63°04' E 007°43'0 0.0
2018-Feb-10 19:00N 63°04' E 007°43'0 0.0
2018-Feb-10 18:30N 63°04' E 007°43'0 0.0
2018-Feb-10 18:00N 63°04' E 007°43'0 0.0
2018-Feb-10 17:28N 63°04' E 007°43'0 0.0
2018-Feb-10 16:59N 63°04' E 007°43'0 0.0
2018-Feb-10 16:30N 63°04' E 007°43'0 0.0
2018-Feb-10 16:00N 63°04' E 007°43'0 0.0
2018-Feb-10 15:29N 63°04' E 007°43'0 0.0
2018-Feb-10 15:00N 63°04' E 007°43'0 0.0
2018-Feb-10 14:29N 63°04' E 007°43'0 0.0
2018-Feb-10 14:00N 63°04' E 007°43'0 0.0
2018-Feb-10 13:30N 63°04' E 007°43'0 0.0
2018-Feb-10 13:00N 63°04' E 007°43'0 0.0
2018-Feb-10 12:30N 63°04' E 007°43'0 0.0
2018-Feb-10 12:00N 63°04' E 007°43'0 0.0
2018-Feb-10 11:30N 63°04' E 007°43'0 0.0
2018-Feb-10 11:00N 63°04' E 007°43'0 0.0
2018-Feb-10 10:30N 63°04' E 007°43'0 0.0
2018-Feb-10 10:00N 63°04' E 007°43'0 0.0
2018-Feb-10 09:30N 63°04' E 007°43'0 0.0
2018-Feb-10 09:00N 63°04' E 007°43'0 0.0
2018-Feb-10 08:30N 63°04' E 007°43'0 0.0
2018-Feb-10 08:00N 63°04' E 007°43'0 0.0
2018-Feb-10 07:30N 63°04' E 007°43'0 0.0
2018-Feb-10 07:00N 63°04' E 007°43'0 0.0
2018-Feb-10 06:30N 63°04' E 007°43'0 0.0
2018-Feb-10 06:00N 63°04' E 007°43'0 0.0
2018-Feb-10 05:30N 63°04' E 007°43'0 0.0
2018-Feb-10 05:00N 63°04' E 007°43'0 0.0
2018-Feb-10 04:30N 63°04' E 007°43'0 0.0
2018-Feb-10 04:00N 63°04' E 007°43'0 0.0
2018-Feb-10 03:30N 63°04' E 007°43'0 0.0
2018-Feb-10 03:00N 63°04' E 007°43'0 0.0
2018-Feb-10 02:28N 63°04' E 007°43'0 0.0
2018-Feb-10 02:00N 63°04' E 007°43'0 0.0
2018-Feb-10 01:30N 63°04' E 007°43'0 0.0
2018-Feb-10 01:00N 63°04' E 007°43'0 0.0
2018-Feb-10 00:30N 63°04' E 007°43'0 0.0
2018-Feb-10 00:00N 63°04' E 007°43'0 0.0
2018-Feb-09 23:30N 63°04' E 007°43'0 0.0
2018-Feb-09 23:00N 63°04' E 007°43'0 0.0
2018-Feb-09 22:46N 63°04' E 007°43'0 0.0
2018-Feb-09 22:00N 63°04' E 007°43'0 0.0
2018-Feb-09 21:30N 63°04' E 007°43'0 0.0
2018-Feb-09 13:00N 63°04' E 007°43'0 0.0
2018-Feb-09 12:30N 63°04' E 007°43'0 0.0
2018-Feb-09 12:00N 63°04' E 007°43'0 0.0
2018-Feb-09 11:30N 63°04' E 007°43'0 0.0
2018-Feb-09 11:00N 63°04' E 007°43'0 0.0
2018-Feb-09 10:30N 63°04' E 007°43'0 0.0
2018-Feb-09 10:00N 63°04' E 007°43'0 0.0
2018-Feb-09 09:00N 63°04' E 007°43'0 0.0
2018-Feb-09 08:00N 63°04' E 007°43'0 0.0
2018-Feb-09 07:30N 63°04' E 007°43'0 0.0
2018-Feb-09 06:00N 63°04' E 007°43'0 0.0
2018-Feb-09 05:30N 63°04' E 007°43'0 0.0
2018-Feb-09 05:00N 63°04' E 007°43'0 0.0
2018-Feb-09 04:30N 63°04' E 007°43'0 0.0
2018-Feb-09 04:00N 63°04' E 007°43'0 0.0
2018-Feb-09 03:30N 63°04' E 007°43'0 0.0
2018-Feb-09 03:00N 63°04' E 007°43'0 0.0
2018-Feb-09 02:30N 63°04' E 007°43'0 0.0
2018-Feb-09 02:00N 63°04' E 007°43'0 0.0
2018-Feb-09 01:30N 63°04' E 007°43'0 0.0
2018-Feb-09 01:00N 63°04' E 007°43'0 0.0
2018-Feb-09 00:30N 63°04' E 007°43'0 0.0
2018-Feb-09 00:00N 63°04' E 007°43'0 0.0
2018-Feb-08 23:30N 63°04' E 007°43'0 0.0
2018-Feb-08 23:00N 63°04' E 007°43'  

Dump ship's entire track history